Time;durP1;ratioP1;P1;durP2;ratioP2;P2;SDS_P1;SDS_P2;PMS_P1;PMS_P2;Temp;Humidity;BMP_temperature;BMP_pressure;BME280_temperature;BME280_humidity;BME280_pressure;Samples;Min_cycle;Max_cycle;Signal;HPM_P1;HPM_P2
2023/05/05 00:00:05;;;;;;;4.57;2.62;;;16.40;99.90;;;;;;7300388;32;20274;-55
2023/05/05 00:04:07;;;;;;;3.42;2.60;;;16.30;99.90;;;;;;7311196;32;20164;-54
2023/05/05 00:08:09;;;;;;;4.85;3.35;;;16.20;99.90;;;;;;7304981;32;20227;-54
2023/05/05 00:12:10;;;;;;;5.25;2.62;;;16.20;99.90;;;;;;7307401;32;20761;-54
2023/05/05 00:16:13;;;;;;;4.82;2.65;;;16.20;99.90;;;;;;7306386;32;20229;-55
2023/05/05 00:20:15;;;;;;;5.43;2.70;;;16.10;99.90;;;;;;7315458;32;20352;-55
2023/05/05 00:24:16;;;;;;;4.25;2.47;;;16.20;99.90;;;;;;7309308;32;20541;-54
2023/05/05 00:28:18;;;;;;;3.25;2.47;;;16.30;99.90;;;;;;7303452;32;20536;-54
2023/05/05 00:32:20;;;;;;;4.87;3.15;;;16.30;99.90;;;;;;7308539;32;20206;-54
2023/05/05 00:36:22;;;;;;;5.47;2.80;;;16.20;99.90;;;;;;7305759;32;20112;-55
2023/05/05 00:40:24;;;;;;;4.75;2.50;;;16.00;99.90;;;;;;7302265;32;20682;-54
2023/05/05 00:44:38;;;;;;;4.62;3.00;;;15.90;99.90;;;;;;7296813;32;20202;-54
2023/05/05 00:48:40;;;;;;;4.43;2.55;;;15.80;99.90;;;;;;7308937;32;20161;-54
2023/05/05 00:52:42;;;;;;;3.45;3.00;;;15.80;99.90;;;;;;7304428;32;20191;-55
2023/05/05 00:56:44;;;;;;;3.87;3.00;;;15.60;99.90;;;;;;7303103;32;20139;-54
2023/05/05 01:00:46;;;;;;;5.35;2.87;;;15.50;99.90;;;;;;7296746;32;20214;-56
2023/05/05 01:04:48;;;;;;;3.90;2.70;;;15.50;99.90;;;;;;7308056;32;20695;-54
2023/05/05 01:09:15;;;;;;;5.68;3.00;;;15.30;99.90;;;;;;7304321;32;20126;-55
2023/05/05 01:13:54;;;;;;;7.25;2.95;;;15.20;99.90;;;;;;7302016;32;20227;-55
2023/05/05 01:18:05;;;;;;;3.53;2.60;;;15.00;99.90;;;;;;7298894;32;20259;-55
2023/05/05 01:22:12;;;;;;;6.87;3.53;;;14.90;99.90;;;;;;7302810;32;20212;-55
2023/05/05 01:26:49;;;;;;;5.83;3.23;;;14.90;99.90;;;;;;7307651;32;21405;-54
2023/05/05 01:31:16;;;;;;;4.40;3.45;;;14.70;99.90;;;;;;7298073;32;20207;-54
2023/05/05 01:35:25;;;;;;;4.60;3.20;;;14.50;99.90;;;;;;7304310;32;20112;-56
2023/05/05 01:39:32;;;;;;;5.05;2.95;;;14.40;99.90;;;;;;7317422;32;20168;-55
2023/05/05 01:43:36;;;;;;;3.30;3.00;;;14.20;99.90;;;;;;7310991;32;20119;-56
2023/05/05 01:47:40;;;;;;;5.18;3.67;;;14.20;99.90;;;;;;7298364;32;20135;-56
2023/05/05 01:51:44;;;;;;;6.90;3.70;;;13.90;99.90;;;;;;7307754;32;20150;-54
2023/05/05 01:55:48;;;;;;;7.30;3.53;;;13.80;99.90;;;;;;7320590;32;20210;-55
2023/05/05 01:59:51;;;;;;;8.07;3.90;;;13.80;99.90;;;;;;7311270;32;20545;-54
2023/05/05 02:03:55;;;;;;;5.20;3.58;;;13.70;99.90;;;;;;7309494;32;20235;-57
2023/05/05 02:07:59;;;;;;;6.57;3.90;;;13.60;99.90;;;;;;7306558;32;20108;-56
2023/05/05 02:12:09;;;;;;;9.25;4.37;;;13.50;99.90;;;;;;7307061;32;20208;-55
2023/05/05 02:16:14;;;;;;;5.62;4.82;;;13.40;99.90;;;;;;7309186;32;20145;-55
2023/05/05 02:20:18;;;;;;;8.07;4.05;;;13.20;99.90;;;;;;7311005;32;20949;-55
2023/05/05 02:24:20;;;;;;;5.87;4.25;;;13.10;99.90;;;;;;7311472;32;20147;-55
2023/05/05 02:28:35;;;;;;;8.18;4.37;;;13.00;99.90;;;;;;7309722;32;20735;-55
2023/05/05 02:32:40;;;;;;;5.70;4.50;;;12.80;99.90;;;;;;7299380;32;20128;-55
2023/05/05 02:36:45;;;;;;;5.90;4.50;;;12.70;99.90;;;;;;7306103;32;21079;-55
2023/05/05 02:40:50;;;;;;;5.68;4.72;;;12.60;99.90;;;;;;7308717;32;20103;-55
2023/05/05 02:44:56;;;;;;;6.32;4.60;;;12.60;99.90;;;;;;7316316;32;20231;-55
2023/05/05 02:48:58;;;;;;;6.28;4.68;;;12.40;99.90;;;;;;7306371;32;20127;-55
2023/05/05 02:53:00;;;;;;;8.70;5.47;;;12.40;99.90;;;;;;7309207;32;20115;-56
2023/05/05 02:57:03;;;;;;;10.65;5.10;;;12.30;99.90;;;;;;7310119;32;20193;-55
2023/05/05 03:01:13;;;;;;;6.03;5.18;;;12.20;99.90;;;;;;7305629;32;20120;-55
2023/05/05 03:05:29;;;;;;;4.72;4.30;;;12.10;99.90;;;;;;7308447;32;20137;-55
2023/05/05 03:09:42;;;;;;;8.25;5.40;;;12.00;99.90;;;;;;7306069;32;20210;-55
2023/05/05 03:13:49;;;;;;;10.02;5.68;;;12.00;99.90;;;;;;7306343;32;20127;-55
2023/05/05 03:17:52;;;;;;;6.78;5.28;;;12.00;99.90;;;;;;7303940;32;20136;-55
2023/05/05 03:21:55;;;;;;;11.82;5.68;;;12.00;99.90;;;;;;7306338;32;20669;-55
2023/05/05 03:25:56;;;;;;;6.80;5.53;;;12.10;99.90;;;;;;7310589;32;20479;-55
2023/05/05 03:29:58;;;;;;;7.62;5.90;;;12.10;99.90;;;;;;7322926;32;20711;-54
2023/05/05 03:34:00;;;;;;;9.55;5.32;;;12.00;99.90;;;;;;7310010;32;20179;-54
2023/05/05 03:38:01;;;;;;;7.53;5.50;;;11.90;99.90;;;;;;7303652;32;20576;-55
2023/05/05 03:42:03;;;;;;;9.10;6.12;;;11.80;99.90;;;;;;7312563;32;20268;-55
2023/05/05 03:46:05;;;;;;;8.73;5.90;;;11.70;99.90;;;;;;7308782;32;20161;-55
2023/05/05 03:50:07;;;;;;;7.30;5.65;;;11.50;99.90;;;;;;7306440;32;20431;-55
2023/05/05 03:54:10;;;;;;;8.65;6.40;;;11.50;99.90;;;;;;7311410;32;20168;-55
2023/05/05 03:58:11;;;;;;;9.63;6.47;;;11.30;99.90;;;;;;7310594;32;20778;-55
2023/05/05 04:02:13;;;;;;;8.30;6.18;;;11.30;99.90;;;;;;7300338;32;20677;-54
2023/05/05 04:06:17;;;;;;;7.12;5.47;;;11.30;99.90;;;;;;7301469;32;20246;-54
2023/05/05 04:10:20;;;;;;;12.65;6.53;;;11.30;99.90;;;;;;7310055;32;20172;-55
2023/05/05 04:14:21;;;;;;;7.80;5.90;;;11.30;99.90;;;;;;7309464;32;20135;-55
2023/05/05 04:18:23;;;;;;;9.55;6.18;;;11.40;99.90;;;;;;7304777;32;20426;-55
2023/05/05 04:22:25;;;;;;;6.55;5.82;;;11.40;99.90;;;;;;7306114;32;20302;-55
2023/05/05 04:26:26;;;;;;;8.80;6.55;;;11.40;99.90;;;;;;7311067;32;20497;-54
2023/05/05 04:30:28;;;;;;;8.32;5.90;;;11.60;99.90;;;;;;7306287;32;20239;-54
2023/05/05 04:34:30;;;;;;;9.10;6.47;;;11.60;99.90;;;;;;7305867;32;20137;-55
2023/05/05 04:38:31;;;;;;;10.10;6.68;;;11.60;99.90;;;;;;7301416;32;20300;-54
2023/05/05 04:42:33;;;;;;;9.35;5.97;;;11.70;99.90;;;;;;7303712;32;20777;-57
2023/05/05 04:46:35;;;;;;;8.20;6.32;;;11.80;99.90;;;;;;7294792;32;20238;-55
2023/05/05 04:50:37;;;;;;;9.23;6.20;;;11.80;99.90;;;;;;7296301;32;20266;-56
2023/05/05 04:54:38;;;;;;;7.87;6.65;;;11.80;99.90;;;;;;7303398;32;20226;-56
2023/05/05 04:58:40;;;;;;;11.70;6.62;;;11.90;99.90;;;;;;7306403;32;20129;-56
2023/05/05 05:02:42;;;;;;;8.63;6.82;;;11.90;99.90;;;;;;7306187;32;20124;-56
2023/05/05 05:06:44;;;;;;;9.82;6.97;;;12.00;99.90;;;;;;7312292;32;20205;-57
2023/05/05 05:10:46;;;;;;;8.80;6.93;;;12.00;99.90;;;;;;7300714;32;20228;-56
2023/05/05 05:14:48;;;;;;;10.52;6.40;;;12.10;99.90;;;;;;7301529;32;20202;-55
2023/05/05 05:18:50;;;;;;;7.40;6.50;;;12.10;99.90;;;;;;7306884;32;20134;-55
2023/05/05 05:22:51;;;;;;;9.75;6.97;;;12.10;99.90;;;;;;7308507;32;20805;-56
2023/05/05 05:26:55;;;;;;;15.85;10.75;;;12.20;99.90;;;;;;7300266;32;20226;-56
2023/05/05 05:30:57;;;;;;;13.07;7.35;;;12.30;99.90;;;;;;7313392;32;20238;-56
2023/05/05 05:34:58;;;;;;;10.52;6.82;;;12.30;99.90;;;;;;7309562;32;20746;-55
2023/05/05 05:39:00;;;;;;;10.48;6.97;;;12.40;99.90;;;;;;7307863;32;20203;-56
2023/05/05 05:43:02;;;;;;;13.82;7.65;;;12.50;99.90;;;;;;7307840;32;20111;-56
2023/05/05 05:47:04;;;;;;;16.55;7.10;;;12.50;99.90;;;;;;7311142;32;20234;-56
2023/05/05 05:51:06;;;;;;;10.18;6.32;;;12.60;99.90;;;;;;7302723;32;20190;-55
2023/05/05 05:55:08;;;;;;;20.77;13.18;;;12.70;99.90;;;;;;7304155;32;20600;-56
2023/05/05 05:59:10;;;;;;;16.80;10.98;;;12.80;99.90;;;;;;7305357;32;20132;-55
2023/05/05 06:03:12;;;;;;;73.50;17.12;;;13.00;99.90;;;;;;7310986;32;20277;-56
2023/05/05 06:07:14;;;;;;;56.30;15.98;;;13.20;99.90;;;;;;7304984;32;20225;-56
2023/05/05 06:11:15;;;;;;;22.67;9.65;;;13.40;99.90;;;;;;7308069;32;20138;-55
2023/05/05 06:15:17;;;;;;;27.62;12.63;;;13.50;99.90;;;;;;7310835;32;20305;-56
2023/05/05 06:19:19;;;;;;;26.95;15.70;;;13.70;99.90;;;;;;7311566;32;20159;-56
2023/05/05 06:23:20;;;;;;;20.75;16.55;;;14.20;99.90;;;;;;7306837;32;20186;-55
2023/05/05 06:27:22;;;;;;;20.73;17.35;;;14.50;99.90;;;;;;7304258;32;20180;-55
2023/05/05 06:31:24;;;;;;;19.80;16.65;;;14.90;99.90;;;;;;7317716;32;20210;-57
2023/05/05 06:35:26;;;;;;;21.08;15.18;;;15.00;99.90;;;;;;7305791;32;20153;-56
2023/05/05 06:39:28;;;;;;;20.15;14.77;;;15.40;99.90;;;;;;7306642;32;20135;-56
2023/05/05 06:43:30;;;;;;;20.48;15.18;;;16.00;99.90;;;;;;7308164;32;20115;-56
2023/05/05 06:47:31;;;;;;;15.75;13.50;;;16.10;99.90;;;;;;7301256;32;20492;-56
2023/05/05 06:51:34;;;;;;;15.95;14.25;;;16.40;99.90;;;;;;7308280;32;20131;-56
2023/05/05 06:55:36;;;;;;;16.15;13.77;;;16.70;99.90;;;;;;7307881;32;20116;-56
2023/05/05 06:59:37;;;;;;;12.05;8.55;;;17.20;99.90;;;;;;7307978;32;20241;-55
2023/05/05 07:03:39;;;;;;;8.27;7.47;;;17.60;99.90;;;;;;7320490;32;20289;-56
2023/05/05 07:07:54;;;;;;;10.63;6.70;;;17.90;99.90;;;;;;7312667;32;20115;-56
2023/05/05 07:11:56;;;;;;;9.65;7.35;;;18.30;99.90;;;;;;7305258;32;20171;-56
2023/05/05 07:15:57;;;;;;;7.87;6.65;;;18.30;99.90;;;;;;7311415;32;20161;-57
2023/05/05 07:19:59;;;;;;;9.63;7.00;;;18.20;99.90;;;;;;7310924;32;20145;-56
2023/05/05 07:24:04;;;;;;;7.15;6.15;;;18.20;99.90;;;;;;7307672;32;20113;-56
2023/05/05 07:28:05;;;;;;;7.80;5.85;;;18.30;99.90;;;;;;7309915;32;20220;-57
2023/05/05 07:32:07;;;;;;;9.30;6.85;;;18.30;99.90;;;;;;7307474;32;20129;-56
2023/05/05 07:36:09;;;;;;;9.77;6.90;;;18.60;99.90;;;;;;7306757;32;20242;-56
2023/05/05 07:40:12;;;;;;;9.10;5.80;;;18.90;99.90;;;;;;7300137;32;20143;-56
2023/05/05 07:44:13;;;;;;;7.82;6.43;;;18.80;99.90;;;;;;7291206;32;20149;-57
2023/05/05 07:48:15;;;;;;;7.82;5.60;;;18.70;99.90;;;;;;7297455;32;20206;-59
2023/05/05 07:52:17;;;;;;;9.35;6.85;;;18.80;99.90;;;;;;7292251;32;20281;-59
2023/05/05 07:56:18;;;;;;;10.32;7.62;;;18.80;99.90;;;;;;7301831;32;20226;-59
2023/05/05 08:00:22;;;;;;;12.10;8.73;;;18.70;99.90;;;;;;7295401;32;20538;-59
2023/05/05 08:04:24;;;;;;;9.82;8.48;;;18.50;99.90;;;;;;7294617;32;20194;-58
2023/05/05 08:08:25;;;;;;;11.82;8.93;;;18.50;99.90;;;;;;7298879;32;20155;-58
2023/05/05 08:12:27;;;;;;;11.05;9.50;;;18.50;99.90;;;;;;7290267;32;20253;-58
2023/05/05 08:16:29;;;;;;;12.13;9.50;;;18.60;99.90;;;;;;7294234;32;21057;-59
2023/05/05 08:20:31;;;;;;;13.15;8.70;;;18.80;99.90;;;;;;7300174;32;20175;-58
2023/05/05 08:24:32;;;;;;;10.63;8.02;;;19.10;99.90;;;;;;7314867;32;20166;-59
2023/05/05 08:28:38;;;;;;;8.80;7.03;;;19.40;99.90;;;;;;7303388;32;20624;-59
2023/05/05 08:32:40;;;;;;;9.52;7.25;;;19.80;99.90;;;;;;7293123;32;20162;-59
2023/05/05 08:36:42;;;;;;;10.02;7.18;;;19.80;99.90;;;;;;7300728;32;20116;-58
2023/05/05 08:40:44;;;;;;;10.27;7.28;;;19.60;99.90;;;;;;7297261;32;20201;-58
2023/05/05 08:44:45;;;;;;;9.10;6.85;;;20.10;99.90;;;;;;7296426;32;20187;-60
2023/05/05 08:48:48;;;;;;;9.20;7.30;;;20.40;99.90;;;;;;7299377;32;20209;-60
2023/05/05 08:53:09;;;;;;;7.97;6.85;;;21.00;99.90;;;;;;7294582;32;20707;-56
2023/05/05 08:57:15;;;;;;;9.43;6.90;;;21.30;99.90;;;;;;7300486;32;20729;-58
2023/05/05 09:01:17;;;;;;;9.40;5.65;;;22.40;99.90;;;;;;7297985;32;20115;-58
2023/05/05 09:05:19;;;;;;;7.90;5.70;;;23.50;99.90;;;;;;7294078;32;20170;-56
2023/05/05 09:09:21;;;;;;;6.82;5.10;;;23.80;99.90;;;;;;7292479;32;20897;-57
2023/05/05 09:13:23;;;;;;;8.02;6.12;;;24.50;99.90;;;;;;7296839;32;20310;-57
2023/05/05 09:17:25;;;;;;;10.30;7.00;;;24.40;99.90;;;;;;7295267;32;20203;-57
2023/05/05 09:21:28;;;;;;;7.93;6.57;;;23.80;99.90;;;;;;7299811;32;20277;-57
2023/05/05 09:25:29;;;;;;;8.55;7.00;;;23.70;99.90;;;;;;7290266;32;20229;-56
2023/05/05 09:29:31;;;;;;;8.18;5.75;;;23.40;99.90;;;;;;7299092;32;20126;-57
2023/05/05 09:33:33;;;;;;;9.48;6.82;;;23.20;99.90;;;;;;7301480;32;20112;-58
2023/05/05 09:37:35;;;;;;;7.62;5.78;;;23.80;99.90;;;;;;7299887;32;20266;-57
2023/05/05 09:41:41;;;;;;;8.82;6.68;;;24.10;99.90;;;;;;7294307;32;21078;-57
2023/05/05 09:45:43;;;;;;;7.73;6.60;;;24.40;99.90;;;;;;7312918;32;20127;-57
2023/05/05 09:49:55;;;;;;;7.95;4.37;;;24.70;99.90;;;;;;7307181;32;20111;-57
2023/05/05 09:53:56;;;;;;;4.68;3.83;;;24.60;99.90;;;;;;7313909;32;20249;-56
2023/05/05 09:58:22;;;;;;;6.82;4.12;;;24.80;99.90;;;;;;7315111;32;20166;-57
2023/05/05 10:02:36;;;;;;;7.20;4.15;;;25.00;99.90;;;;;;7306871;32;20128;-57
2023/05/05 10:06:42;;;;;;;6.37;3.62;;;25.00;99.90;;;;;;7296665;32;20120;-57
2023/05/05 10:10:50;;;;;;;4.43;3.12;;;24.70;99.70;;;;;;7311269;32;20478;-57
2023/05/05 10:14:55;;;;;;;5.70;3.85;;;24.50;99.20;;;;;;7308677;32;20172;-56
2023/05/05 10:19:00;;;;;;;6.25;3.92;;;24.70;99.90;;;;;;7314963;32;20540;-56
2023/05/05 10:23:10;;;;;;;5.00;3.78;;;24.70;99.40;;;;;;7316290;32;20184;-57
2023/05/05 10:27:16;;;;;;;6.50;3.42;;;24.90;98.30;;;;;;7317118;32;20268;-57
2023/05/05 10:31:45;;;;;;;4.68;3.70;;;24.70;98.50;;;;;;7300963;32;20360;-58
2023/05/05 10:35:52;;;;;;;5.10;2.95;;;24.50;97.60;;;;;;7299169;32;20201;-56
2023/05/05 10:39:56;;;;;;;4.50;3.50;;;24.60;99.90;;;;;;7312945;32;20167;-57
2023/05/05 10:43:58;;;;;;;4.15;3.05;;;24.00;99.90;;;;;;7313887;32;20139;-57
2023/05/05 10:48:05;;;;;;;5.95;3.78;;;24.20;99.90;;;;;;7302703;32;20215;-56
2023/05/05 10:52:39;;;;;;;5.55;2.67;;;24.20;99.30;;;;;;7303545;32;20346;-56
2023/05/05 10:56:41;;;;;;;7.53;3.15;;;24.40;99.90;;;;;;7285328;32;20169;-59
2023/05/05 11:00:49;;;;;;;5.18;3.17;;;23.50;99.90;;;;;;7300194;32;20320;-60
2023/05/05 11:05:15;;;;;;;4.35;3.10;;;23.10;99.90;;;;;;7295933;32;20175;-59
2023/05/05 11:09:27;;;;;;;6.65;4.00;;;22.60;99.90;;;;;;7297565;32;20146;-59
2023/05/05 11:13:30;;;;;;;5.57;3.12;;;22.10;99.90;;;;;;7302192;32;20161;-58
2023/05/05 11:17:45;;;;;;;6.55;3.30;;;21.70;99.90;;;;;;7294988;32;20568;-58
2023/05/05 11:22:02;;;;;;;8.20;2.58;;;21.50;99.90;;;;;;7295244;32;20205;-55
2023/05/05 11:26:04;;;;;;;8.55;4.12;;;21.10;99.90;;;;;;7294985;32;20177;-56
2023/05/05 11:30:07;;;;;;;6.62;4.43;;;20.50;99.90;;;;;;7295526;32;20250;-55
2023/05/05 11:34:27;;;;;;;9.18;5.10;;;20.20;99.90;;;;;;7296175;32;20284;-55
2023/05/05 11:38:51;;;;;;;6.95;4.07;;;19.60;99.90;;;;;;7300479;32;20135;-55
2023/05/05 11:43:04;;;;;;;8.57;3.37;;;18.90;99.90;;;;;;7296311;32;20288;-56
2023/05/05 11:47:06;;;;;;;7.30;2.60;;;18.10;99.90;;;;;;7293540;32;20229;-56
2023/05/05 11:51:17;;;;;;;13.38;5.30;;;17.60;99.90;;;;;;7301167;32;20111;-55
2023/05/05 11:55:20;;;;;;;13.93;4.03;;;17.10;99.90;;;;;;7298882;32;20607;-55
2023/05/05 11:59:22;;;;;;;9.80;2.75;;;15.60;99.90;;;;;;7300548;32;20133;-56
2023/05/05 12:03:24;;;;;;;6.68;2.47;;;14.00;99.90;;;;;;7299738;32;20316;-56
2023/05/05 12:07:29;;;;;;;3.65;1.73;;;13.40;99.90;;;;;;7299963;32;20150;-56
2023/05/05 12:11:31;;;;;;;2.72;0.93;;;13.30;99.90;;;;;;7302127;32;20236;-56
2023/05/05 12:15:33;;;;;;;4.05;1.05;;;13.30;99.90;;;;;;7295751;32;20151;-56
2023/05/05 12:19:35;;;;;;;3.30;1.80;;;13.20;99.90;;;;;;7297849;32;20849;-61
2023/05/05 12:23:37;;;;;;;3.85;1.55;;;13.40;99.90;;;;;;7296086;32;20924;-61
2023/05/05 12:27:40;;;;;;;5.55;2.00;;;13.60;99.90;;;;;;7300158;32;20132;-60
2023/05/05 12:31:42;;;;;;;6.25;1.48;;;14.10;99.90;;;;;;7292820;32;20786;-62
2023/05/05 12:35:43;;;;;;;7.18;1.33;;;14.50;99.90;;;;;;7299350;32;20169;-61
2023/05/05 12:39:45;;;;;;;3.67;1.80;;;15.30;99.90;;;;;;7305811;32;20735;-61
2023/05/05 12:43:53;;;;;;;4.15;1.10;;;16.20;99.90;;;;;;7306007;32;20223;-61
2023/05/05 12:47:54;;;;;;;2.50;1.27;;;16.90;99.90;;;;;;7303847;32;20116;-61
2023/05/05 12:51:56;;;;;;;2.22;0.90;;;17.40;99.90;;;;;;7303977;32;20123;-60
2023/05/05 12:55:58;;;;;;;4.57;1.48;;;17.50;99.90;;;;;;7306349;32;20159;-57
2023/05/05 13:00:14;;;;;;;3.00;1.62;;;17.70;99.90;;;;;;7303634;32;20732;-56
2023/05/05 13:04:17;;;;;;;6.22;2.30;;;17.90;99.90;;;;;;7299926;32;20545;-56
2023/05/05 13:08:18;;;;;;;5.55;2.20;;;17.80;99.90;;;;;;7295061;32;20387;-56
2023/05/05 13:12:20;;;;;;;5.75;3.00;;;17.70;99.90;;;;;;7306855;32;20110;-56
2023/05/05 13:16:26;;;;;;;4.37;2.65;;;17.60;99.90;;;;;;7297827;32;20182;-56
2023/05/05 13:20:28;;;;;;;8.45;3.40;;;17.60;99.90;;;;;;7299604;32;20108;-56
2023/05/05 13:24:30;;;;;;;5.78;3.50;;;17.60;99.90;;;;;;7300035;32;20111;-56
2023/05/05 13:28:51;;;;;;;4.45;3.47;;;17.70;99.90;;;;;;7297939;32;20123;-56
2023/05/05 13:32:53;;;;;;;5.25;3.22;;;17.70;99.90;;;;;;7294442;32;20562;-56
2023/05/05 13:36:55;;;;;;;5.57;3.85;;;17.90;99.90;;;;;;7300603;32;20535;-56
2023/05/05 13:40:57;;;;;;;5.87;3.85;;;17.90;99.90;;;;;;7293469;32;20276;-56
2023/05/05 13:44:58;;;;;;;5.53;3.80;;;18.10;99.90;;;;;;7299505;32;20573;-56
2023/05/05 13:49:00;;;;;;;6.12;3.65;;;18.50;99.90;;;;;;7298761;32;20109;-56
2023/05/05 13:53:02;;;;;;;5.97;4.22;;;18.80;99.90;;;;;;7306731;32;20198;-56
2023/05/05 13:57:07;;;;;;;6.82;4.20;;;19.00;99.90;;;;;;7306185;32;20139;-57
2023/05/05 14:01:09;;;;;;;6.95;4.30;;;19.10;99.90;;;;;;7312943;32;20138;-57
2023/05/05 14:05:11;;;;;;;6.55;4.78;;;18.90;99.90;;;;;;7309778;32;20104;-57
2023/05/05 14:09:13;;;;;;;8.10;5.30;;;18.70;99.90;;;;;;7308697;32;20164;-57
2023/05/05 14:13:15;;;;;;;8.55;5.82;;;18.50;99.90;;;;;;7308134;32;20254;-57
2023/05/05 14:17:16;;;;;;;7.32;5.62;;;18.20;99.90;;;;;;7307060;32;20115;-57
2023/05/05 14:21:18;;;;;;;8.98;5.53;;;18.00;99.90;;;;;;7307295;32;20122;-57
2023/05/05 14:25:20;;;;;;;7.12;4.93;;;17.90;99.90;;;;;;7316041;32;20111;-57
2023/05/05 14:29:22;;;;;;;7.53;5.07;;;17.80;99.90;;;;;;7313108;32;20138;-56
2023/05/05 14:33:24;;;;;;;10.40;5.35;;;17.70;99.90;;;;;;7311288;32;20135;-57
2023/05/05 14:37:26;;;;;;;8.20;4.97;;;17.70;99.90;;;;;;7314922;32;20273;-57
2023/05/05 14:41:27;;;;;;;7.93;4.85;;;17.60;99.90;;;;;;7306807;32;20132;-57
2023/05/05 14:45:30;;;;;;;7.28;5.20;;;17.40;99.90;;;;;;7306594;32;20100;-56
2023/05/05 14:49:32;;;;;;;9.23;4.50;;;17.30;99.90;;;;;;7314095;32;20163;-56
2023/05/05 14:53:33;;;;;;;4.53;3.03;;;17.30;99.90;;;;;;7304848;32;20150;-56
2023/05/05 14:57:37;;;;;;;5.90;3.20;;;17.30;99.90;;;;;;7314539;32;20158;-56
2023/05/05 15:01:38;;;;;;;6.22;2.33;;;16.70;99.90;;;;;;7295871;32;20519;-56
2023/05/05 15:05:40;;;;;;;3.58;2.20;;;16.10;99.90;;;;;;7306574;32;20491;-57
2023/05/05 15:09:42;;;;;;;6.22;1.95;;;15.80;99.90;;;;;;7307973;32;20131;-59
2023/05/05 15:13:43;;;;;;;3.30;2.10;;;15.50;99.90;;;;;;7301751;32;20111;-57
2023/05/05 15:17:45;;;;;;;6.20;1.73;;;15.20;99.90;;;;;;7299305;32;20190;-57
2023/05/05 15:21:52;;;;;;;4.57;1.90;;;15.00;99.90;;;;;;7304960;32;20230;-57
2023/05/05 15:25:54;;;;;;;7.30;3.08;;;14.90;99.90;;;;;;7300985;32;20223;-57
2023/05/05 15:29:56;;;;;;;6.60;3.15;;;14.90;99.90;;;;;;7306993;32;20120;-57
2023/05/05 15:33:57;;;;;;;3.45;2.30;;;14.80;99.90;;;;;;7306741;32;20135;-57
2023/05/05 15:37:59;;;;;;;3.90;1.60;;;14.60;99.90;;;;;;7313328;32;20112;-57
2023/05/05 15:42:04;;;;;;;2.92;1.77;;;14.40;99.90;;;;;;7309893;32;20361;-57
2023/05/05 15:46:05;;;;;;;5.12;1.60;;;14.40;99.90;;;;;;7303891;32;20310;-57
2023/05/05 15:50:07;;;;;;;2.67;1.42;;;14.30;99.90;;;;;;7302229;32;20215;-57
2023/05/05 15:54:09;;;;;;;2.12;1.30;;;14.20;99.90;;;;;;7305375;32;20127;-57
2023/05/05 15:58:11;;;;;;;3.97;1.80;;;14.20;99.90;;;;;;7298559;32;20111;-57
2023/05/05 16:02:12;;;;;;;7.78;2.58;;;14.10;99.90;;;;;;7300313;32;21336;-57
2023/05/05 16:06:14;;;;;;;5.53;2.55;;;14.10;99.90;;;;;;7297572;32;20151;-57
2023/05/05 16:10:18;;;;;;;5.18;3.30;;;14.10;99.90;;;;;;7296455;32;20217;-57
2023/05/05 16:14:19;;;;;;;5.90;4.20;;;14.20;99.90;;;;;;7298012;32;20203;-57
2023/05/05 16:18:21;;;;;;;7.37;3.50;;;14.20;99.90;;;;;;7306221;32;20529;-57
2023/05/05 16:22:23;;;;;;;7.78;4.47;;;14.30;99.90;;;;;;7298671;32;20190;-57
2023/05/05 16:26:25;;;;;;;7.32;5.00;;;14.40;99.90;;;;;;7299807;32;20537;-57
2023/05/05 16:30:28;;;;;;;8.90;7.87;;;14.60;99.90;;;;;;7308270;32;20111;-57
2023/05/05 16:34:29;;;;;;;10.88;9.23;;;14.80;99.90;;;;;;7304118;32;20164;-56
2023/05/05 16:38:31;;;;;;;9.45;6.68;;;14.90;99.90;;;;;;7302489;32;20108;-56
2023/05/05 16:42:33;;;;;;;8.05;5.30;;;14.80;99.90;;;;;;7312438;32;20172;-56
2023/05/05 16:46:36;;;;;;;9.93;5.65;;;14.80;99.90;;;;;;7298779;32;20230;-57
2023/05/05 16:50:38;;;;;;;8.27;4.78;;;14.60;99.90;;;;;;7298180;32;20201;-57
2023/05/05 16:54:40;;;;;;;7.87;3.97;;;14.60;99.90;;;;;;7298851;32;20136;-57
2023/05/05 16:58:42;;;;;;;4.15;3.10;;;14.50;99.90;;;;;;7305159;32;20134;-57
2023/05/05 17:02:43;;;;;;;5.12;2.95;;;14.60;99.90;;;;;;7300298;32;21198;-57
2023/05/05 17:06:45;;;;;;;3.37;2.30;;;14.50;99.90;;;;;;7298832;32;20442;-57
2023/05/05 17:10:47;;;;;;;3.85;2.20;;;14.40;99.90;;;;;;7297186;32;20869;-56
2023/05/05 17:14:49;;;;;;;5.53;2.30;;;14.40;99.90;;;;;;7297509;32;20124;-57
2023/05/05 17:18:52;;;;;;;3.05;2.03;;;14.30;99.90;;;;;;7302939;32;20254;-57
2023/05/05 17:22:54;;;;;;;3.97;3.30;;;14.20;99.90;;;;;;7299815;32;20525;-57
2023/05/05 17:26:56;;;;;;;2.95;2.20;;;14.20;99.90;;;;;;7303643;32;20135;-57
2023/05/05 17:30:58;;;;;;;5.07;1.87;;;14.00;99.90;;;;;;7304554;32;20160;-56
2023/05/05 17:35:00;;;;;;;4.15;2.05;;;13.80;99.90;;;;;;7305206;32;20112;-57
2023/05/05 17:39:02;;;;;;;4.15;2.03;;;13.80;99.90;;;;;;7309060;32;20111;-56
2023/05/05 17:43:04;;;;;;;5.43;2.53;;;13.80;99.90;;;;;;7308438;32;20096;-57
2023/05/05 17:47:06;;;;;;;3.87;2.87;;;13.70;99.90;;;;;;7312982;32;20277;-56
2023/05/05 17:51:08;;;;;;;5.62;3.25;;;13.70;99.90;;;;;;7302105;32;20490;-56
2023/05/05 17:55:10;;;;;;;3.17;2.33;;;13.60;99.90;;;;;;7309303;32;20157;-56
2023/05/05 17:59:12;;;;;;;4.25;2.90;;;13.60;99.90;;;;;;7304838;32;20742;-56
2023/05/05 18:03:14;;;;;;;4.37;2.60;;;13.60;99.90;;;;;;7306374;32;20525;-56
2023/05/05 18:07:15;;;;;;;4.47;2.72;;;13.60;99.90;;;;;;7311530;32;20146;-56
2023/05/05 18:11:19;;;;;;;4.15;2.95;;;13.60;99.90;;;;;;7304589;32;20522;-55
2023/05/05 18:15:21;;;;;;;3.55;2.50;;;13.70;99.90;;;;;;7311166;32;20632;-59
2023/05/05 18:19:23;;;;;;;3.97;2.58;;;13.60;99.90;;;;;;7309168;32;20138;-57
2023/05/05 18:23:25;;;;;;;2.85;2.60;;;13.60;99.90;;;;;;7307564;32;20240;-56
2023/05/05 18:27:27;;;;;;;7.07;2.87;;;13.50;99.90;;;;;;7311336;32;20702;-56
2023/05/05 18:31:29;;;;;;;5.30;3.40;;;13.40;99.90;;;;;;7310408;32;20579;-56
2023/05/05 18:35:31;;;;;;;4.53;3.10;;;13.40;99.90;;;;;;7313893;32;20131;-56
2023/05/05 18:39:33;;;;;;;4.22;3.40;;;13.20;99.90;;;;;;7304801;32;20222;-56
2023/05/05 18:43:35;;;;;;;6.22;3.80;;;13.20;99.90;;;;;;7308318;32;20730;-56
2023/05/05 18:47:38;;;;;;;5.57;3.60;;;13.30;99.90;;;;;;7303365;32;20256;-56
2023/05/05 18:51:40;;;;;;;6.43;3.65;;;13.30;99.90;;;;;;7309164;32;20136;-56
2023/05/05 18:55:42;;;;;;;5.85;3.50;;;13.20;99.90;;;;;;7302941;32;20173;-57
2023/05/05 18:59:44;;;;;;;5.60;3.60;;;13.20;99.90;;;;;;7300017;32;20316;-56
2023/05/05 19:03:46;;;;;;;6.50;4.28;;;13.10;99.90;;;;;;7309957;32;20222;-56
2023/05/05 19:07:48;;;;;;;6.57;4.00;;;13.10;99.90;;;;;;7309974;32;20493;-56
2023/05/05 19:11:50;;;;;;;4.05;3.37;;;13.00;99.90;;;;;;7300866;32;20150;-55
2023/05/05 19:15:53;;;;;;;5.90;4.30;;;13.00;99.90;;;;;;7309603;32;20836;-55
2023/05/05 19:19:55;;;;;;;6.18;4.65;;;13.00;99.90;;;;;;7306436;32;20586;-56
2023/05/05 19:23:56;;;;;;;7.07;5.15;;;12.90;99.90;;;;;;7304643;32;20171;-55
2023/05/05 19:27:58;;;;;;;4.43;4.03;;;12.70;99.90;;;;;;7305893;32;20126;-56
2023/05/05 19:32:00;;;;;;;6.72;4.35;;;12.60;99.90;;;;;;7305169;32;20226;-56
2023/05/05 19:36:02;;;;;;;7.32;5.95;;;12.50;99.90;;;;;;7306680;32;20611;-55
2023/05/05 19:40:04;;;;;;;8.43;5.05;;;12.30;99.90;;;;;;7307893;32;20112;-56
2023/05/05 19:44:06;;;;;;;9.60;5.43;;;12.20;99.90;;;;;;7310695;32;20351;-55
2023/05/05 19:48:08;;;;;;;6.60;5.45;;;12.10;99.90;;;;;;7299125;32;20166;-56
2023/05/05 19:52:10;;;;;;;9.13;5.70;;;12.00;99.90;;;;;;7309502;32;20523;-55
2023/05/05 19:56:11;;;;;;;6.85;4.80;;;11.90;99.90;;;;;;7307675;32;20135;-56
2023/05/05 20:00:13;;;;;;;9.05;5.12;;;11.80;99.90;;;;;;7302285;32;20137;-55
2023/05/05 20:04:15;;;;;;;6.80;5.15;;;11.70;99.90;;;;;;7305575;32;20806;-55
2023/05/05 20:08:17;;;;;;;6.80;4.70;;;11.60;99.90;;;;;;7305652;32;20270;-55
2023/05/05 20:12:20;;;;;;;7.22;5.15;;;11.50;99.90;;;;;;7301178;32;20642;-56
2023/05/05 20:16:22;;;;;;;8.52;5.97;;;11.40;99.90;;;;;;7305122;32;20713;-56
2023/05/05 20:20:24;;;;;;;11.63;6.15;;;11.30;99.90;;;;;;7305204;32;20169;-55
2023/05/05 20:24:27;;;;;;;8.23;5.80;;;11.20;99.90;;;;;;7309225;32;20173;-56
2023/05/05 20:28:32;;;;;;;7.65;6.18;;;11.10;99.90;;;;;;7302932;32;20143;-55
2023/05/05 20:32:35;;;;;;;10.82;6.70;;;11.00;99.90;;;;;;7299977;32;20184;-55
2023/05/05 20:36:37;;;;;;;8.45;6.12;;;10.90;99.90;;;;;;7302925;32;20391;-55
2023/05/05 20:40:39;;;;;;;6.55;5.50;;;10.90;99.90;;;;;;7306331;32;21030;-56
2023/05/05 20:44:41;;;;;;;13.50;6.45;;;10.80;99.90;;;;;;7301446;32;20116;-56
2023/05/05 20:48:43;;;;;;;20.27;7.62;;;10.70;99.90;;;;;;7305566;32;20133;-56
2023/05/05 20:52:46;;;;;;;11.27;7.78;;;10.60;99.90;;;;;;7301416;32;20447;-55
2023/05/05 20:56:47;;;;;;;9.32;6.37;;;10.50;99.90;;;;;;7307909;32;20244;-56
2023/05/05 21:00:49;;;;;;;10.20;6.78;;;10.50;99.90;;;;;;7298919;32;20150;-55
2023/05/05 21:04:51;;;;;;;7.68;6.75;;;10.40;99.90;;;;;;7305376;32;20209;-56